sensor_id;sensor_type;location;lat;lon;timestamp;pressure;altitude;pressure_sealevel;temperature;humidity
30554;BME280;17335;50.720;7.452;2024-02-15T00:00:41;99591.88;;;10.35;100.00
30554;BME280;17335;50.720;7.452;2024-02-15T00:03:09;99590.59;;;10.39;100.00
30554;BME280;17335;50.720;7.452;2024-02-15T00:05:39;99594.84;;;10.42;100.00
30554;BME280;17335;50.720;7.452;2024-02-15T00:08:06;99587.63;;;10.42;100.00
30554;BME280;17335;50.720;7.452;2024-02-15T00:10:32;99596.41;;;10.44;100.00
30554;BME280;17335;50.720;7.452;2024-02-15T00:12:59;99592.59;;;10.47;100.00
30554;BME280;17335;50.720;7.452;2024-02-15T00:15:26;99591.72;;;10.37;100.00
30554;BME280;17335;50.720;7.452;2024-02-15T00:17:52;99584.91;;;10.32;100.00
30554;BME280;17335;50.720;7.452;2024-02-15T00:20:19;99588.47;;;10.43;100.00
30554;BME280;17335;50.720;7.452;2024-02-15T00:22:46;99589.19;;;10.35;100.00
30554;BME280;17335;50.720;7.452;2024-02-15T00:25:14;99591.03;;;10.44;100.00
30554;BME280;17335;50.720;7.452;2024-02-15T00:27:40;99593.28;;;10.39;100.00
30554;BME280;17335;50.720;7.452;2024-02-15T00:30:08;99592.16;;;10.42;100.00
30554;BME280;17335;50.720;7.452;2024-02-15T00:32:35;99594.69;;;10.34;100.00
30554;BME280;17335;50.720;7.452;2024-02-15T00:35:04;99593.28;;;10.39;100.00
30554;BME280;17335;50.720;7.452;2024-02-15T00:37:35;99606.50;;;10.31;100.00
30554;BME280;17335;50.720;7.452;2024-02-15T00:40:02;99600.34;;;10.40;100.00
30554;BME280;17335;50.720;7.452;2024-02-15T00:42:30;99601.19;;;10.41;100.00
30554;BME280;17335;50.720;7.452;2024-02-15T00:44:59;99596.53;;;10.43;100.00
30554;BME280;17335;50.720;7.452;2024-02-15T00:47:26;99599.91;;;10.35;100.00
30554;BME280;17335;50.720;7.452;2024-02-15T00:50:02;99604.00;;;10.39;100.00
30554;BME280;17335;50.720;7.452;2024-02-15T00:52:29;99605.72;;;10.40;100.00
30554;BME280;17335;50.720;7.452;2024-02-15T00:54:57;99601.75;;;10.44;100.00
30554;BME280;17335;50.720;7.452;2024-02-15T00:57:23;99596.66;;;10.41;100.00
30554;BME280;17335;50.720;7.452;2024-02-15T00:59:50;99598.50;;;10.41;100.00
30554;BME280;17335;50.720;7.452;2024-02-15T01:02:18;99600.22;;;10.42;100.00
30554;BME280;17335;50.720;7.452;2024-02-15T01:04:44;99598.53;;;10.50;100.00
30554;BME280;17335;50.720;7.452;2024-02-15T01:07:12;99592.16;;;10.42;100.00
30554;BME280;17335;50.720;7.452;2024-02-15T01:09:39;99598.09;;;10.45;100.00
30554;BME280;17335;50.720;7.452;2024-02-15T01:12:06;99600.09;;;10.53;100.00
30554;BME280;17335;50.720;7.452;2024-02-15T01:14:33;99599.09;;;10.54;100.00
30554;BME280;17335;50.720;7.452;2024-02-15T01:17:00;99592.44;;;10.48;100.00
30554;BME280;17335;50.720;7.452;2024-02-15T01:19:26;99593.72;;;10.44;100.00
30554;BME280;17335;50.720;7.452;2024-02-15T01:21:53;99598.38;;;10.42;100.00
30554;BME280;17335;50.720;7.452;2024-02-15T01:24:19;99594.97;;;10.40;100.00
30554;BME280;17335;50.720;7.452;2024-02-15T01:26:46;99601.47;;;10.38;100.00
30554;BME280;17335;50.720;7.452;2024-02-15T01:29:14;99601.63;;;10.46;100.00
30554;BME280;17335;50.720;7.452;2024-02-15T01:31:43;99607.97;;;10.45;100.00
30554;BME280;17335;50.720;7.452;2024-02-15T01:34:10;99601.47;;;10.38;100.00
30554;BME280;17335;50.720;7.452;2024-02-15T01:36:37;99604.31;;;10.46;100.00
30554;BME280;17335;50.720;7.452;2024-02-15T01:39:03;99598.38;;;10.42;100.00
30554;BME280;17335;50.720;7.452;2024-02-15T01:41:30;99602.91;;;10.42;100.00
30554;BME280;17335;50.720;7.452;2024-02-15T01:43:57;99602.03;;;10.41;100.00
30554;BME280;17335;50.720;7.452;2024-02-15T01:46:24;99590.75;;;10.47;100.00
30554;BME280;17335;50.720;7.452;2024-02-15T01:48:51;99592.75;;;10.45;100.00
30554;BME280;17335;50.720;7.452;2024-02-15T01:51:18;99589.63;;;10.40;100.00
30554;BME280;17335;50.720;7.452;2024-02-15T01:53:44;99591.03;;;10.44;100.00
30554;BME280;17335;50.720;7.452;2024-02-15T01:56:13;99591.03;;;10.44;100.00
30554;BME280;17335;50.720;7.452;2024-02-15T01:58:42;99586.94;;;10.50;100.00
30554;BME280;17335;50.720;7.452;2024-02-15T02:03:38;99583.13;;;10.53;100.00
30554;BME280;17335;50.720;7.452;2024-02-15T02:06:05;99583.97;;;10.53;100.00
30554;BME280;17335;50.720;7.452;2024-02-15T02:08:33;99579.19;;;10.57;100.00
30554;BME280;17335;50.720;7.452;2024-02-15T02:10:59;99572.41;;;10.53;100.00
30554;BME280;17335;50.720;7.452;2024-02-15T02:13:27;99573.81;;;10.57;100.00
30554;BME280;17335;50.720;7.452;2024-02-15T02:15:56;99575.22;;;10.51;100.00
30554;BME280;17335;50.720;7.452;2024-02-15T02:18:23;99574.66;;;10.57;100.00
30554;BME280;17335;50.720;7.452;2024-02-15T02:20:50;99564.78;;;10.58;100.00
30554;BME280;17335;50.720;7.452;2024-02-15T02:23:17;99570.69;;;10.42;100.00
30554;BME280;17335;50.720;7.452;2024-02-15T02:25:49;99547.81;;;10.47;100.00
30554;BME280;17335;50.720;7.452;2024-02-15T02:28:16;99557.97;;;10.54;100.00
30554;BME280;17335;50.720;7.452;2024-02-15T02:30:43;99556.31;;;10.53;100.00
30554;BME280;17335;50.720;7.452;2024-02-15T02:33:14;99545.56;;;10.53;100.00
30554;BME280;17335;50.720;7.452;2024-02-15T02:35:45;99547.53;;;10.50;100.00
30554;BME280;17335;50.720;7.452;2024-02-15T02:38:12;99545.69;;;10.51;100.00
30554;BME280;17335;50.720;7.452;2024-02-15T02:40:39;99544.84;;;10.50;100.00
30554;BME280;17335;50.720;7.452;2024-02-15T02:43:06;99545.13;;;10.47;100.00
30554;BME280;17335;50.720;7.452;2024-02-15T02:45:33;99543.72;;;10.53;100.00
30554;BME280;17335;50.720;7.452;2024-02-15T02:47:59;99534.38;;;10.57;100.00
30554;BME280;17335;50.720;7.452;2024-02-15T02:50:26;99535.94;;;10.50;100.00
30554;BME280;17335;50.720;7.452;2024-02-15T02:52:53;99538.22;;;10.55;100.00
30554;BME280;17335;50.720;7.452;2024-02-15T02:55:19;99540.47;;;10.49;100.00
30554;BME280;17335;50.720;7.452;2024-02-15T02:57:47;99531.72;;;10.47;100.00
30554;BME280;17335;50.720;7.452;2024-02-15T03:00:14;99531.88;;;10.56;100.00
30554;BME280;17335;50.720;7.452;2024-02-15T03:02:43;99533.56;;;10.47;100.00
30554;BME280;17335;50.720;7.452;2024-02-15T03:05:10;99524.09;;;10.53;100.00
30554;BME280;17335;50.720;7.452;2024-02-15T03:07:39;99524.94;;;10.53;100.00
30554;BME280;17335;50.720;7.452;2024-02-15T03:10:08;99533.53;;;10.57;100.00
30554;BME280;17335;50.720;7.452;2024-02-15T03:12:36;99530.16;;;10.55;100.00
30554;BME280;17335;50.720;7.452;2024-02-15T03:15:04;99529.75;;;10.59;100.00
30554;BME280;17335;50.720;7.452;2024-02-15T03:17:31;99522.09;;;10.55;100.00
30554;BME280;17335;50.720;7.452;2024-02-15T03:20:00;99522.53;;;10.60;100.00
30554;BME280;17335;50.720;7.452;2024-02-15T03:22:28;99518.13;;;10.59;100.00
30554;BME280;17335;50.720;7.452;2024-02-15T03:24:55;99516.47;;;10.58;100.00
30554;BME280;17335;50.720;7.452;2024-02-15T03:27:22;99527.19;;;10.58;100.00
30554;BME280;17335;50.720;7.452;2024-02-15T03:29:49;99520.41;;;10.54;100.00
30554;BME280;17335;50.720;7.452;2024-02-15T03:32:17;99522.81;;;10.47;100.00
30554;BME280;17335;50.720;7.452;2024-02-15T03:34:44;99518.16;;;10.49;100.00
30554;BME280;17335;50.720;7.452;2024-02-15T03:37:11;99523.22;;;10.42;100.00
30554;BME280;17335;50.720;7.452;2024-02-15T03:39:38;99510.50;;;10.44;100.00
30554;BME280;17335;50.720;7.452;2024-02-15T03:42:04;99510.91;;;10.40;100.00
30554;BME280;17335;50.720;7.452;2024-02-15T03:44:32;99511.66;;;10.42;100.00
30554;BME280;17335;50.720;7.452;2024-02-15T03:46:59;99516.59;;;10.46;100.00
30554;BME280;17335;50.720;7.452;2024-02-15T03:49:25;99509.81;;;10.52;100.00
30554;BME280;17335;50.720;7.452;2024-02-15T03:51:53;99521.13;;;10.56;100.00
30554;BME280;17335;50.720;7.452;2024-02-15T03:54:21;99514.47;;;10.60;100.00
30554;BME280;17335;50.720;7.452;2024-02-15T03:56:50;99511.53;;;10.63;100.00
30554;BME280;17335;50.720;7.452;2024-02-15T03:59:19;99514.19;;;10.63;100.00
30554;BME280;17335;50.720;7.452;2024-02-15T04:01:53;99513.63;;;10.69;100.00
30554;BME280;17335;50.720;7.452;2024-02-15T04:04:20;99511.94;;;10.68;100.00
30554;BME280;17335;50.720;7.452;2024-02-15T04:06:51;99509.97;;;10.70;100.00
30554;BME280;17335;50.720;7.452;2024-02-15T04:09:20;99512.50;;;10.72;100.00
30554;BME280;17335;50.720;7.452;2024-02-15T04:11:47;99518.56;;;10.74;100.00
30554;BME280;17335;50.720;7.452;2024-02-15T04:14:19;99511.34;;;10.74;100.00
30554;BME280;17335;50.720;7.452;2024-02-15T04:16:45;99522.69;;;10.68;100.00
30554;BME280;17335;50.720;7.452;2024-02-15T04:19:12;99520.69;;;10.70;100.00
30554;BME280;17335;50.720;7.452;2024-02-15T04:21:39;99519.13;;;10.67;100.00
30554;BME280;17335;50.720;7.452;2024-02-15T04:24:06;99529.75;;;10.79;100.00
30554;BME280;17335;50.720;7.452;2024-02-15T04:26:33;99530.28;;;10.73;100.00
30554;BME280;17335;50.720;7.452;2024-02-15T04:28:59;99525.66;;;10.65;100.00
30554;BME280;17335;50.720;7.452;2024-02-15T04:31:26;99519.00;;;10.69;100.00
30554;BME280;17335;50.720;7.452;2024-02-15T04:33:53;99517.31;;;10.68;100.00
30554;BME280;17335;50.720;7.452;2024-02-15T04:36:21;99511.94;;;10.68;100.00
30554;BME280;17335;50.720;7.452;2024-02-15T04:38:52;99507.00;;;10.73;100.00
30554;BME280;17335;50.720;7.452;2024-02-15T04:41:19;99504.59;;;10.70;100.00
30554;BME280;17335;50.720;7.452;2024-02-15T04:43:46;99512.78;;;10.68;100.00
30554;BME280;17335;50.720;7.452;2024-02-15T04:46:13;99510.66;;;10.62;100.00
30554;BME280;17335;50.720;7.452;2024-02-15T04:48:41;99509.25;;;10.58;100.00
30554;BME280;17335;50.720;7.452;2024-02-15T04:51:10;99516.88;;;10.63;100.00
30554;BME280;17335;50.720;7.452;2024-02-15T04:53:37;99507.41;;;10.59;100.00
30554;BME280;17335;50.720;7.452;2024-02-15T04:56:05;99507.13;;;10.62;100.00
30554;BME280;17335;50.720;7.452;2024-02-15T04:58:37;99513.19;;;10.64;100.00
30554;BME280;17335;50.720;7.452;2024-02-15T05:01:04;99511.38;;;10.64;100.00
30554;BME280;17335;50.720;7.452;2024-02-15T05:03:32;99515.59;;;10.67;100.00
30554;BME280;17335;50.720;7.452;2024-02-15T05:06:01;99509.09;;;10.60;100.00
30554;BME280;17335;50.720;7.452;2024-02-15T05:08:30;99509.81;;;10.62;100.00
30554;BME280;17335;50.720;7.452;2024-02-15T05:10:58;99506.16;;;10.63;100.00
30554;BME280;17335;50.720;7.452;2024-02-15T05:13:24;99508.41;;;10.58;100.00
30554;BME280;17335;50.720;7.452;2024-02-15T05:15:51;99501.19;;;10.58;100.00
30554;BME280;17335;50.720;7.452;2024-02-15T05:18:18;99505.72;;;10.58;100.00
30554;BME280;17335;50.720;7.452;2024-02-15T05:20:44;99497.53;;;10.59;100.00
30554;BME280;17335;50.720;7.452;2024-02-15T05:23:11;99492.16;;;10.59;100.00
30554;BME280;17335;50.720;7.452;2024-02-15T05:25:38;99495.41;;;10.63;100.00
30554;BME280;17335;50.720;7.452;2024-02-15T05:28:05;99497.22;;;10.62;100.00
30554;BME280;17335;50.720;7.452;2024-02-15T05:30:35;99496.66;;;10.59;100.00
30554;BME280;17335;50.720;7.452;2024-02-15T05:33:04;99494.13;;;10.67;100.00
30554;BME280;17335;50.720;7.452;2024-02-15T05:35:30;99495.84;;;10.68;100.00
30554;BME280;17335;50.720;7.452;2024-02-15T05:37:57;99500.19;;;10.69;100.00
30554;BME280;17335;50.720;7.452;2024-02-15T05:40:23;99502.03;;;10.68;100.00
30554;BME280;17335;50.720;7.452;2024-02-15T05:42:55;99499.50;;;10.67;100.00
30554;BME280;17335;50.720;7.452;2024-02-15T05:47:54;99506.00;;;10.74;100.00
30554;BME280;17335;50.720;7.452;2024-02-15T05:50:22;99499.78;;;10.74;100.00
30554;BME280;17335;50.720;7.452;2024-02-15T05:52:49;99498.25;;;10.71;100.00
30554;BME280;17335;50.720;7.452;2024-02-15T05:55:18;99499.22;;;10.70;100.00
30554;BME280;17335;50.720;7.452;2024-02-15T05:57:45;99497.97;;;10.64;100.00
30554;BME280;17335;50.720;7.452;2024-02-15T06:00:12;99506.28;;;10.71;100.00
30554;BME280;17335;50.720;7.452;2024-02-15T06:02:48;99500.34;;;10.77;100.00
30554;BME280;17335;50.720;7.452;2024-02-15T06:05:16;99498.66;;;10.66;100.00
30554;BME280;17335;50.720;7.452;2024-02-15T06:07:44;99496.53;;;10.70;100.00
30554;BME280;17335;50.720;7.452;2024-02-15T06:10:11;99492.16;;;10.79;100.00
30554;BME280;17335;50.720;7.452;2024-02-15T06:12:37;99490.88;;;10.73;100.00
30554;BME280;17335;50.720;7.452;2024-02-15T06:15:04;99490.44;;;10.78;100.00
30554;BME280;17335;50.720;7.452;2024-02-15T06:17:41;99491.59;;;10.75;100.00
30554;BME280;17335;50.720;7.452;2024-02-15T06:20:13;99492.44;;;10.76;100.00
30554;BME280;17335;50.720;7.452;2024-02-15T06:22:40;99485.50;;;10.73;100.00
30554;BME280;17335;50.720;7.452;2024-02-15T06:25:08;99487.91;;;10.76;100.00
30554;BME280;17335;50.720;7.452;2024-02-15T06:27:34;99481.81;;;10.74;100.00
30554;BME280;17335;50.720;7.452;2024-02-15T06:30:03;99482.56;;;10.76;100.00
30554;BME280;17335;50.720;7.452;2024-02-15T06:32:48;99476.16;;;10.77;100.00
30554;BME280;17335;50.720;7.452;2024-02-15T06:35:33;99475.19;;;10.78;100.00
30554;BME280;17335;50.720;7.452;2024-02-15T06:38:19;99473.50;;;10.77;100.00
30554;BME280;17335;50.720;7.452;2024-02-15T06:41:04;99479.69;;;10.78;100.00
30554;BME280;17335;50.720;7.452;2024-02-15T06:43:30;99481.97;;;10.82;100.00
30554;BME280;17335;50.720;7.452;2024-02-15T06:45:57;99490.03;;;10.82;100.00
30554;BME280;17335;50.720;7.452;2024-02-15T06:48:24;99479.88;;;10.76;100.00
30554;BME280;17335;50.720;7.452;2024-02-15T06:50:52;99484.22;;;10.77;100.00
30554;BME280;17335;50.720;7.452;2024-02-15T06:53:20;99481.81;;;10.74;100.00
30554;BME280;17335;50.720;7.452;2024-02-15T06:55:47;99479.69;;;10.78;100.00
30554;BME280;17335;50.720;7.452;2024-02-15T06:58:17;99483.09;;;10.70;100.00
30554;BME280;17335;50.720;7.452;2024-02-15T07:00:43;99480.56;;;10.68;100.00
30554;BME280;17335;50.720;7.452;2024-02-15T07:03:10;99480.56;;;10.78;100.00
30554;BME280;17335;50.720;7.452;2024-02-15T07:05:39;99476.16;;;10.77;100.00
30554;BME280;17335;50.720;7.452;2024-02-15T07:08:07;99476.88;;;10.79;100.00
30554;BME280;17335;50.720;7.452;2024-02-15T07:10:39;99481.53;;;10.77;100.00
30554;BME280;17335;50.720;7.452;2024-02-15T07:13:06;99489.75;;;10.85;100.00
30554;BME280;17335;50.720;7.452;2024-02-15T07:15:33;99491.72;;;10.83;100.00
30554;BME280;17335;50.720;7.452;2024-02-15T07:18:05;99492.16;;;10.79;100.00
30554;BME280;17335;50.720;7.452;2024-02-15T07:20:35;99500.91;;;10.91;100.00
30554;BME280;17335;50.720;7.452;2024-02-15T07:23:01;99496.81;;;10.77;100.00
30554;BME280;17335;50.720;7.452;2024-02-15T07:25:28;99497.50;;;10.88;100.00
30554;BME280;17335;50.720;7.452;2024-02-15T07:27:55;99505.16;;;10.83;100.00
30554;BME280;17335;50.720;7.452;2024-02-15T07:30:23;99499.91;;;10.82;100.00
30554;BME280;17335;50.720;7.452;2024-02-15T07:32:51;99504.72;;;10.78;100.00
30554;BME280;17335;50.720;7.452;2024-02-15T07:35:18;99507.56;;;10.86;100.00
30554;BME280;17335;50.720;7.452;2024-02-15T07:37:55;99506.56;;;10.87;100.00
30554;BME280;17335;50.720;7.452;2024-02-15T07:40:24;99504.00;;;10.96;100.00
30554;BME280;17335;50.720;7.452;2024-02-15T07:42:57;99502.88;;;10.88;100.00
30554;BME280;17335;50.720;7.452;2024-02-15T07:45:26;99502.75;;;10.90;100.00
30554;BME280;17335;50.720;7.452;2024-02-15T07:47:54;99502.72;;;11.00;100.00
30554;BME280;17335;50.720;7.452;2024-02-15T07:50:20;99504.84;;;11.06;100.00
30554;BME280;17335;50.720;7.452;2024-02-15T07:52:49;99512.47;;;11.01;100.00
30554;BME280;17335;50.720;7.452;2024-02-15T07:55:16;99510.22;;;11.06;100.00
30554;BME280;17335;50.720;7.452;2024-02-15T07:57:43;99514.16;;;11.12;100.00
30554;BME280;17335;50.720;7.452;2024-02-15T08:00:09;99519.13;;;11.06;100.00
30554;BME280;17335;50.720;7.452;2024-02-15T08:02:38;99525.50;;;11.05;100.00
30554;BME280;17335;50.720;7.452;2024-02-15T08:05:07;99525.31;;;11.07;100.00
30554;BME280;17335;50.720;7.452;2024-02-15T08:07:41;99533.09;;;11.10;100.00
30554;BME280;17335;50.720;7.452;2024-02-15T08:10:08;99533.97;;;11.11;100.00
30554;BME280;17335;50.720;7.452;2024-02-15T08:12:45;99534.13;;;11.09;100.00
30554;BME280;17335;50.720;7.452;2024-02-15T08:15:12;99536.38;;;11.04;100.00
30554;BME280;17335;50.720;7.452;2024-02-15T08:17:41;99539.47;;;10.99;100.00
30554;BME280;17335;50.720;7.452;2024-02-15T08:20:10;99541.34;;;10.99;100.00
30554;BME280;17335;50.720;7.452;2024-02-15T08:22:37;99531.44;;;11.09;100.00
30554;BME280;17335;50.720;7.452;2024-02-15T08:25:11;99539.06;;;11.04;100.00
30554;BME280;17335;50.720;7.452;2024-02-15T08:27:47;99537.78;;;11.08;100.00
30554;BME280;17335;50.720;7.452;2024-02-15T08:30:16;99533.38;;;11.07;100.00
30554;BME280;17335;50.720;7.452;2024-02-15T08:32:45;99534.81;;;11.11;100.00
30554;BME280;17335;50.720;7.452;2024-02-15T08:35:13;99539.91;;;11.04;100.00
30554;BME280;17335;50.720;7.452;2024-02-15T08:37:40;99530.84;;;11.15;100.00
30554;BME280;17335;50.720;7.452;2024-02-15T08:40:09;99532.13;;;11.11;100.00
30554;BME280;17335;50.720;7.452;2024-02-15T08:42:40;99530.97;;;11.23;100.00
30554;BME280;17335;50.720;7.452;2024-02-15T08:45:08;99523.72;;;11.34;100.00
30554;BME280;17335;50.720;7.452;2024-02-15T08:47:36;99524.56;;;11.34;100.00
30554;BME280;17335;50.720;7.452;2024-02-15T08:50:05;99521.88;;;11.34;100.00
30554;BME280;17335;50.720;7.452;2024-02-15T08:52:32;99515.50;;;11.45;100.00
30554;BME280;17335;50.720;7.452;2024-02-15T08:54:58;99515.66;;;11.43;100.00
30554;BME280;17335;50.720;7.452;2024-02-15T08:57:27;99516.19;;;11.47;100.00
30554;BME280;17335;50.720;7.452;2024-02-15T08:59:53;99515.91;;;11.50;100.00
30554;BME280;17335;50.720;7.452;2024-02-15T09:02:21;99517.31;;;11.54;100.00
30554;BME280;17335;50.720;7.452;2024-02-15T09:04:47;99518.84;;;11.57;100.00
30554;BME280;17335;50.720;7.452;2024-02-15T09:07:14;99520.97;;;11.53;100.00
30554;BME280;17335;50.720;7.452;2024-02-15T09:09:44;99509.97;;;11.47;100.00
30554;BME280;17335;50.720;7.452;2024-02-15T09:12:10;99507.84;;;11.50;100.00
30554;BME280;17335;50.720;7.452;2024-02-15T09:14:38;99500.75;;;11.49;100.00
30554;BME280;17335;50.720;7.452;2024-02-15T09:17:05;99496.22;;;11.50;100.00
30554;BME280;17335;50.720;7.452;2024-02-15T09:19:34;99490.00;;;11.49;100.00
30554;BME280;17335;50.720;7.452;2024-02-15T09:22:01;99501.59;;;11.50;100.00
30554;BME280;17335;50.720;7.452;2024-02-15T09:24:30;99497.72;;;11.62;100.00
30554;BME280;17335;50.720;7.452;2024-02-15T09:27:00;99496.50;;;11.56;100.00
30554;BME280;17335;50.720;7.452;2024-02-15T09:29:28;99488.81;;;11.61;100.00
30554;BME280;17335;50.720;7.452;2024-02-15T09:32:05;99481.91;;;11.59;100.00
30554;BME280;17335;50.720;7.452;2024-02-15T09:34:31;99489.38;;;11.65;100.00
30554;BME280;17335;50.720;7.452;2024-02-15T09:36:59;99480.06;;;11.59;100.00
30554;BME280;17335;50.720;7.452;2024-02-15T09:39:25;99481.97;;;11.77;100.00
30554;BME280;17335;50.720;7.452;2024-02-15T09:41:52;99481.41;;;11.73;100.00
30554;BME280;17335;50.720;7.452;2024-02-15T09:44:25;99474.84;;;11.86;100.00
30554;BME280;17335;50.720;7.452;2024-02-15T09:47:04;99480.50;;;11.92;100.00
30554;BME280;17335;50.720;7.452;2024-02-15T09:49:39;99473.72;;;11.88;100.00
30554;BME280;17335;50.720;7.452;2024-02-15T09:52:07;99467.16;;;12.00;100.00
30554;BME280;17335;50.720;7.452;2024-02-15T09:54:41;99459.63;;;12.04;100.00
30554;BME280;17335;50.720;7.452;2024-02-15T09:57:12;99466.00;;;12.03;100.00
30554;BME280;17335;50.720;7.452;2024-02-15T09:59:39;99471.50;;;12.01;100.00
30554;BME280;17335;50.720;7.452;2024-02-15T10:02:07;99469.84;;;12.00;100.00
30554;BME280;17335;50.720;7.452;2024-02-15T10:04:40;99463.69;;;12.08;100.00
30554;BME280;17335;50.720;7.452;2024-02-15T10:07:06;99470.63;;;12.11;100.00
30554;BME280;17335;50.720;7.452;2024-02-15T10:09:36;99467.78;;;12.12;100.00
30554;BME280;17335;50.720;7.452;2024-02-15T10:12:08;99460.56;;;12.13;100.00
30554;BME280;17335;50.720;7.452;2024-02-15T10:14:37;99463.41;;;12.11;100.00
30554;BME280;17335;50.720;7.452;2024-02-15T10:17:08;99463.94;;;12.15;100.00
30554;BME280;17335;50.720;7.452;2024-02-15T10:19:38;99473.09;;;12.22;100.00
30554;BME280;17335;50.720;7.452;2024-02-15T10:22:06;99464.75;;;12.43;100.00
30554;BME280;17335;50.720;7.452;2024-02-15T10:24:33;99463.94;;;12.51;100.00
30554;BME280;17335;50.720;7.452;2024-02-15T10:27:01;99457.03;;;12.66;100.00
30554;BME280;17335;50.720;7.452;2024-02-15T10:29:33;99458.31;;;12.80;100.00
30554;BME280;17335;50.720;7.452;2024-02-15T10:32:01;99446.28;;;12.92;100.00
30554;BME280;17335;50.720;7.452;2024-02-15T10:34:28;99437.78;;;13.05;100.00
30554;BME280;17335;50.720;7.452;2024-02-15T10:37:13;99436.75;;;13.06;100.00
30554;BME280;17335;50.720;7.452;2024-02-15T10:39:40;99428.63;;;13.24;100.00
30554;BME280;17335;50.720;7.452;2024-02-15T10:42:07;99424.38;;;13.22;100.00
30554;BME280;17335;50.720;7.452;2024-02-15T10:44:37;99420.75;;;13.31;100.00
30554;BME280;17335;50.720;7.452;2024-02-15T10:47:07;99410.69;;;13.33;100.00
30554;BME280;17335;50.720;7.452;2024-02-15T10:49:35;99411.19;;;13.37;100.00
30554;BME280;17335;50.720;7.452;2024-02-15T10:52:06;99405.19;;;13.43;100.00
30554;BME280;17335;50.720;7.452;2024-02-15T10:54:52;99396.75;;;13.46;100.00
30554;BME280;17335;50.720;7.452;2024-02-15T10:57:21;99401.19;;;13.55;100.00
30554;BME280;17335;50.720;7.452;2024-02-15T10:59:58;99402.69;;;13.58;100.00
30554;BME280;17335;50.720;7.452;2024-02-15T11:02:33;99395.41;;;13.50;100.00
30554;BME280;17335;50.720;7.452;2024-02-15T11:05:06;99394.25;;;13.53;100.00
30554;BME280;17335;50.720;7.452;2024-02-15T11:07:36;99403.19;;;13.61;100.00
30554;BME280;17335;50.720;7.452;2024-02-15T11:10:04;99389.88;;;13.60;100.00
30554;BME280;17335;50.720;7.452;2024-02-15T11:12:38;99378.56;;;13.56;100.00
30554;BME280;17335;50.720;7.452;2024-02-15T11:15:07;99379.44;;;13.57;100.00
30554;BME280;17335;50.720;7.452;2024-02-15T11:20:04;99366.34;;;13.78;100.00
30554;BME280;17335;50.720;7.452;2024-02-15T11:22:38;99356.41;;;13.79;100.00
30554;BME280;17335;50.720;7.452;2024-02-15T11:25:05;99350.69;;;13.90;100.00
30554;BME280;17335;50.720;7.452;2024-02-15T11:27:38;99355.25;;;13.90;100.00
30554;BME280;17335;50.720;7.452;2024-02-15T11:30:06;99351.22;;;14.02;100.00
30554;BME280;17335;50.720;7.452;2024-02-15T11:32:48;99348.19;;;14.05;100.00
30554;BME280;17335;50.720;7.452;2024-02-15T11:35:18;99331.66;;;14.08;100.00
30554;BME280;17335;50.720;7.452;2024-02-15T11:37:51;99334.00;;;14.03;100.00
30554;BME280;17335;50.720;7.452;2024-02-15T11:43:07;99321.19;;;14.05;100.00
30554;BME280;17335;50.720;7.452;2024-02-15T11:45:35;99318.50;;;14.05;100.00
30554;BME280;17335;50.720;7.452;2024-02-15T11:48:12;99317.63;;;14.04;100.00
30554;BME280;17335;50.720;7.452;2024-02-15T11:50:40;99312.59;;;14.01;100.00
30554;BME280;17335;50.720;7.452;2024-02-15T11:53:08;99311.03;;;13.99;100.00
30554;BME280;17335;50.720;7.452;2024-02-15T11:55:40;99305.47;;;14.00;100.00
30554;BME280;17335;50.720;7.452;2024-02-15T11:58:08;99303.13;;;13.97;100.00
30554;BME280;17335;50.720;7.452;2024-02-15T12:00:37;99297.41;;;14.09;100.00
30554;BME280;17335;50.720;7.452;2024-02-15T12:03:23;99294.88;;;14.07;100.00
30554;BME280;17335;50.720;7.452;2024-02-15T12:06:27;99298.22;;;14.09;100.00
30554;BME280;17335;50.720;7.452;2024-02-15T12:09:17;99296.22;;;14.19;100.00
30554;BME280;17335;50.720;7.452;2024-02-15T12:12:03;99285.75;;;14.33;100.00
30554;BME280;17335;50.720;7.452;2024-02-15T12:14:48;99288.28;;;14.34;100.00
30554;BME280;17335;50.720;7.452;2024-02-15T12:17:34;99288.44;;;14.33;100.00
30554;BME280;17335;50.720;7.452;2024-02-15T12:20:20;99295.19;;;14.37;100.00
30554;BME280;17335;50.720;7.452;2024-02-15T12:22:52;99287.75;;;14.47;100.00
30554;BME280;17335;50.720;7.452;2024-02-15T12:25:19;99284.69;;;14.50;100.00
30554;BME280;17335;50.720;7.452;2024-02-15T12:27:55;99285.53;;;14.51;100.00
30554;BME280;17335;50.720;7.452;2024-02-15T12:30:21;99283.53;;;14.53;100.00
30554;BME280;17335;50.720;7.452;2024-02-15T12:32:50;99275.22;;;14.54;100.00
30554;BME280;17335;50.720;7.452;2024-02-15T12:35:19;99275.25;;;14.62;100.00
30554;BME280;17335;50.720;7.452;2024-02-15T12:38:02;99270.34;;;14.66;100.00
30554;BME280;17335;50.720;7.452;2024-02-15T12:40:33;99267.09;;;14.79;100.00
30554;BME280;17335;50.720;7.452;2024-02-15T12:43:00;99259.50;;;14.74;100.00
30554;BME280;17335;50.720;7.452;2024-02-15T12:45:27;99272.16;;;14.82;100.00
30554;BME280;17335;50.720;7.452;2024-02-15T12:47:57;99270.78;;;14.86;100.00
30554;BME280;17335;50.720;7.452;2024-02-15T12:50:28;99256.09;;;14.89;100.00
30554;BME280;17335;50.720;7.452;2024-02-15T12:52:55;99259.16;;;14.86;100.00
30554;BME280;17335;50.720;7.452;2024-02-15T12:55:23;99250.50;;;14.90;100.00
30554;BME280;17335;50.720;7.452;2024-02-15T12:57:52;99254.56;;;14.86;100.00
30554;BME280;17335;50.720;7.452;2024-02-15T13:00:23;99241.69;;;14.96;100.00
30554;BME280;17335;50.720;7.452;2024-02-15T13:02:55;99240.31;;;15.00;100.00
30554;BME280;17335;50.720;7.452;2024-02-15T13:05:24;99232.84;;;15.11;100.00
30554;BME280;17335;50.720;7.452;2024-02-15T13:07:53;99232.78;;;15.19;100.00
30554;BME280;17335;50.720;7.452;2024-02-15T13:10:22;99234.31;;;15.22;100.00